createdAt,value
2019-05-20T00:00:17.208Z,6.97
2019-05-20T00:03:22.096Z,6.07
2019-05-20T00:06:26.838Z,6.20
2019-05-20T00:09:31.676Z,9.07
2019-05-20T00:12:36.423Z,6.60
2019-05-20T00:15:41.177Z,7.47
2019-05-20T00:18:46.930Z,5.93
2019-05-20T00:21:51.707Z,5.80
2019-05-20T00:24:56.698Z,6.43
2019-05-20T00:28:01.811Z,5.57
2019-05-20T00:31:06.566Z,5.50
2019-05-20T00:34:11.353Z,6.83
2019-05-20T00:37:16.631Z,5.43
2019-05-20T00:40:21.680Z,11.10
2019-05-20T00:43:28.102Z,7.00
2019-05-20T00:46:32.831Z,5.90
2019-05-20T00:49:37.847Z,5.93
2019-05-20T00:52:42.967Z,5.30
2019-05-20T00:55:47.942Z,5.97
2019-05-20T00:58:52.685Z,5.20
2019-05-20T01:01:57.702Z,5.93
2019-05-20T01:05:02.477Z,7.97
2019-05-20T01:08:07.283Z,5.30
2019-05-20T01:11:12.180Z,8.33
2019-05-20T01:14:17.337Z,5.87
2019-05-20T01:17:22.367Z,4.67
2019-05-20T01:20:27.116Z,5.67
2019-05-20T01:23:31.834Z,7.13
2019-05-20T01:26:37.212Z,4.73
2019-05-20T01:29:41.972Z,5.37
2019-05-20T01:32:46.686Z,4.83
2019-05-20T01:35:51.824Z,5.07
2019-05-20T01:38:56.593Z,4.00
2019-05-20T01:42:01.409Z,6.50
2019-05-20T01:45:06.615Z,6.33
2019-05-20T01:48:11.610Z,6.17
2019-05-20T01:51:16.774Z,5.77
2019-05-20T01:54:21.498Z,5.20
2019-05-20T01:57:26.238Z,5.30
2019-05-20T02:00:31.686Z,7.47
2019-05-20T02:03:36.738Z,5.87
2019-05-20T02:06:41.493Z,5.30
2019-05-20T02:09:46.219Z,5.37
2019-05-20T02:12:51.246Z,5.47
2019-05-20T02:16:05.545Z,4.93
2019-05-20T02:19:10.448Z,6.60
2019-05-20T02:22:15.502Z,5.60
2019-05-20T02:25:21.320Z,5.63
2019-05-20T02:28:27.012Z,6.80
2019-05-20T02:31:31.763Z,5.63
2019-05-20T02:34:37.252Z,6.00
2019-05-20T02:37:42.052Z,5.97
2019-05-20T02:40:46.831Z,6.43
2019-05-20T02:43:51.663Z,6.33
2019-05-20T02:46:57.155Z,6.70
2019-05-20T02:50:01.957Z,6.47
2019-05-20T02:53:06.699Z,6.47
2019-05-20T02:56:11.708Z,6.40
2019-05-20T02:59:16.772Z,6.87
2019-05-20T03:02:22.119Z,7.33
2019-05-20T03:05:26.988Z,7.47
2019-05-20T03:08:31.713Z,8.13
2019-05-20T03:11:36.563Z,8.07
2019-05-20T03:14:44.268Z,8.57
2019-05-20T03:17:49.019Z,9.93
2019-05-20T03:20:55.287Z,9.13
2019-05-20T03:24:01.501Z,9.13
2019-05-20T03:27:06.181Z,10.67
2019-05-20T03:30:11.192Z,10.00
2019-05-20T03:33:15.944Z,10.33
2019-05-20T03:36:20.699Z,10.10
2019-05-20T03:39:25.430Z,10.10
2019-05-20T03:42:30.611Z,10.17
2019-05-20T03:45:35.391Z,10.20
2019-05-20T03:48:40.101Z,10.27
2019-05-20T03:51:44.855Z,10.73
2019-05-20T03:54:49.890Z,10.60
2019-05-20T03:57:54.621Z,9.17
2019-05-20T04:00:59.472Z,10.27
2019-05-20T04:04:04.299Z,10.20
2019-05-20T04:07:09.114Z,10.67
2019-05-20T04:10:14.289Z,10.20
2019-05-20T04:13:19.351Z,11.13
2019-05-20T04:16:24.421Z,9.37
2019-05-20T04:19:29.907Z,8.83
2019-05-20T04:22:34.646Z,8.60
2019-05-20T04:25:39.366Z,8.03
2019-05-20T04:28:44.115Z,7.73
2019-05-20T04:31:49.949Z,8.43
2019-05-20T04:34:54.678Z,9.67
2019-05-20T04:37:59.741Z,7.33
2019-05-20T04:41:04.768Z,6.80
2019-05-20T04:44:09.600Z,6.73
2019-05-20T04:47:14.386Z,8.47
2019-05-20T04:50:19.296Z,7.73
2019-05-20T04:53:24.343Z,7.20
2019-05-20T04:56:29.618Z,6.73
2019-05-20T04:59:34.787Z,7.40
2019-05-20T05:02:43.439Z,7.57
2019-05-20T05:05:46.740Z,6.93
2019-05-20T05:08:51.659Z,7.77
2019-05-20T05:11:57.544Z,8.23
2019-05-20T05:15:05.815Z,7.83
2019-05-20T05:18:09.895Z,8.83
2019-05-20T05:21:14.847Z,8.20
2019-05-20T05:24:19.772Z,8.10
2019-05-20T05:27:24.710Z,8.50
2019-05-20T05:30:29.717Z,8.60
2019-05-20T05:33:34.559Z,11.67
2019-05-20T05:36:39.702Z,9.20
2019-05-20T05:39:44.913Z,12.53
2019-05-20T05:42:49.968Z,10.03
2019-05-20T05:45:54.744Z,12.13
2019-05-20T05:49:00.264Z,9.90
2019-05-20T05:52:05.174Z,10.80
2019-05-20T05:55:10.122Z,14.60
2019-05-20T05:58:16.665Z,15.70
2019-05-20T06:01:21.628Z,17.83
2019-05-20T06:04:26.413Z,15.80
2019-05-20T06:07:31.269Z,16.40
2019-05-20T06:10:36.217Z,16.97
2019-05-20T06:13:41.150Z,16.80
2019-05-20T06:16:46.255Z,19.00
2019-05-20T06:19:51.361Z,18.77
2019-05-20T06:22:56.563Z,16.03
2019-05-20T06:26:01.357Z,16.53
2019-05-20T06:29:06.218Z,17.50
2019-05-20T06:32:10.987Z,19.47
2019-05-20T06:35:17.329Z,15.97
2019-05-20T06:38:40.399Z,16.40
2019-05-20T06:41:45.211Z,18.03
2019-05-20T06:44:53.157Z,16.80
2019-05-20T06:47:56.944Z,17.03
2019-05-20T06:51:01.741Z,17.80
2019-05-20T06:54:07.636Z,18.97
2019-05-20T06:57:12.842Z,17.73
2019-05-20T07:00:31.704Z,17.13
2019-05-20T07:03:36.796Z,18.60
2019-05-20T07:06:46.426Z,20.27
2019-05-20T07:09:48.189Z,20.47
2019-05-20T07:12:52.968Z,21.90
2019-05-20T07:15:58.020Z,21.83
2019-05-20T07:19:02.783Z,24.37
2019-05-20T07:22:07.565Z,26.63
2019-05-20T07:25:12.818Z,26.40
2019-05-20T07:28:17.684Z,27.37
2019-05-20T07:31:22.433Z,30.93
2019-05-20T07:34:27.786Z,31.17
2019-05-20T07:37:32.911Z,30.70
2019-05-20T07:40:37.766Z,30.97
2019-05-20T07:43:42.902Z,32.37
2019-05-20T07:46:48.147Z,31.17
2019-05-20T07:49:53.079Z,39.07
2019-05-20T07:53:00.612Z,30.90
2019-05-20T07:56:09.058Z,30.83
2019-05-20T07:59:17.194Z,31.83
2019-05-20T08:02:22.120Z,32.43
2019-05-20T08:05:26.892Z,33.60
2019-05-20T08:08:32.597Z,33.37
2019-05-20T08:11:37.541Z,31.23
2019-05-20T08:14:42.550Z,30.50
2019-05-20T08:17:47.723Z,32.57
2019-05-20T08:20:52.724Z,33.23
2019-05-20T08:23:57.568Z,27.40
2019-05-20T08:27:02.432Z,35.53
2019-05-20T08:30:08.252Z,35.07
2019-05-20T08:33:13.078Z,34.40
2019-05-20T08:36:18.221Z,32.73
2019-05-20T08:39:22.961Z,33.47
2019-05-20T08:42:27.762Z,36.93
2019-05-20T08:45:32.580Z,34.33
2019-05-20T08:48:37.662Z,32.57
2019-05-20T08:51:42.427Z,34.33
2019-05-20T08:54:47.543Z,37.17
2019-05-20T08:57:52.284Z,35.80
2019-05-20T09:00:57.393Z,37.27
2019-05-20T09:04:02.382Z,41.83
2019-05-20T09:07:07.223Z,38.03
2019-05-20T09:10:12.828Z,41.23
2019-05-20T09:13:17.967Z,40.37
2019-05-20T09:16:22.703Z,39.30
2019-05-20T09:19:27.471Z,43.17
2019-05-20T09:22:32.314Z,40.23
2019-05-20T09:25:37.064Z,43.60
2019-05-20T09:28:41.811Z,43.13
2019-05-20T09:31:47.679Z,38.73
2019-05-20T09:34:53.475Z,44.57
2019-05-20T09:37:58.243Z,41.13
2019-05-20T09:41:03.245Z,41.30
2019-05-20T09:44:08.270Z,38.53
2019-05-20T09:47:13.279Z,42.27
2019-05-20T09:50:19.084Z,39.33
2019-05-20T09:53:24.181Z,40.63
2019-05-20T09:56:30.268Z,38.47
2019-05-20T09:59:43.205Z,40.17
2019-05-20T10:02:41.663Z,37.33
2019-05-20T10:05:46.466Z,40.60
2019-05-20T10:08:51.680Z,34.37
2019-05-20T10:11:56.513Z,38.00
2019-05-20T10:15:01.488Z,37.30
2019-05-20T10:18:06.458Z,33.70
2019-05-20T10:21:11.199Z,37.30
2019-05-20T10:24:15.948Z,39.93
2019-05-20T10:27:21.348Z,38.60
2019-05-20T10:30:26.488Z,41.30
2019-05-20T10:33:36.933Z,36.17
2019-05-20T10:36:41.137Z,33.87
2019-05-20T10:39:46.380Z,38.10
2019-05-20T10:42:51.231Z,36.90
2019-05-20T10:45:56.385Z,38.17
2019-05-20T10:49:01.637Z,36.87
2019-05-20T10:52:06.459Z,34.67
2019-05-20T10:55:13.127Z,37.10
2019-05-20T10:58:17.894Z,39.50
2019-05-20T11:01:23.042Z,39.17
2019-05-20T11:04:27.835Z,37.83
2019-05-20T11:07:32.976Z,37.03
2019-05-20T11:10:37.727Z,37.40
2019-05-20T11:13:44.410Z,38.10
2019-05-20T11:16:49.463Z,35.10
2019-05-20T11:19:54.516Z,37.83
2019-05-20T11:23:01.190Z,33.23
2019-05-20T11:26:05.734Z,36.40
2019-05-20T11:29:10.771Z,34.63
2019-05-20T11:32:15.563Z,33.23
2019-05-20T11:35:20.345Z,33.87
2019-05-20T11:38:25.396Z,32.03
2019-05-20T11:41:52.148Z,37.27
2019-05-20T11:44:37.453Z,33.67
2019-05-20T11:47:43.724Z,36.40
2019-05-20T11:50:48.788Z,34.43
2019-05-20T11:53:53.938Z,35.17
2019-05-20T11:56:58.699Z,37.03
2019-05-20T12:00:04.117Z,37.27
2019-05-20T12:03:08.877Z,39.33
2019-05-20T12:06:13.658Z,36.77
2019-05-20T12:09:18.695Z,33.60
2019-05-20T12:12:23.440Z,38.03
2019-05-20T12:15:28.206Z,33.63
2019-05-20T12:18:33.284Z,32.97
2019-05-20T12:21:38.666Z,32.40
2019-05-20T12:24:43.452Z,35.77
2019-05-20T12:27:48.942Z,30.93
2019-05-20T12:30:53.975Z,35.93
2019-05-20T12:33:58.989Z,33.63
2019-05-20T12:37:03.773Z,35.87
2019-05-20T12:40:09.195Z,33.17
2019-05-20T12:43:13.979Z,30.57
2019-05-20T12:46:19.120Z,29.97
2019-05-20T12:49:24.229Z,28.63
2019-05-20T12:52:29.147Z,26.73
2019-05-20T12:55:34.005Z,26.73
2019-05-20T12:58:39.114Z,28.57
2019-05-20T13:01:43.898Z,24.93
2019-05-20T13:04:49.657Z,26.40
2019-05-20T13:07:54.720Z,24.20
2019-05-20T13:10:59.784Z,25.77
2019-05-20T13:14:04.824Z,25.43
2019-05-20T13:17:09.651Z,27.37
2019-05-20T13:20:14.885Z,20.90
2019-05-20T13:23:19.626Z,22.63
2019-05-20T13:26:24.795Z,20.53
2019-05-20T13:29:29.648Z,24.40
2019-05-20T13:32:34.452Z,25.60
2019-05-20T13:35:39.633Z,24.07
2019-05-20T13:38:44.506Z,22.97
2019-05-20T13:41:49.691Z,26.67
2019-05-20T13:44:54.573Z,23.23
2019-05-20T13:47:59.339Z,21.27
2019-05-20T13:51:04.280Z,22.00
2019-05-20T13:54:09.260Z,18.20
2019-05-20T13:57:14.096Z,19.47
2019-05-20T14:00:20.017Z,20.80
2019-05-20T14:03:24.751Z,20.77
2019-05-20T14:06:29.856Z,20.30
2019-05-20T14:09:34.570Z,19.93
2019-05-20T14:12:39.645Z,21.73
2019-05-20T14:15:44.379Z,21.63
2019-05-20T14:18:49.477Z,19.47
2019-05-20T14:21:54.625Z,21.50
2019-05-20T14:25:00.233Z,19.53
2019-05-20T14:28:05.177Z,20.77
2019-05-20T14:31:10.400Z,23.27
2019-05-20T14:34:15.563Z,26.40
2019-05-20T14:37:20.608Z,23.20
2019-05-20T14:40:25.702Z,21.23
2019-05-20T14:43:30.586Z,21.80
2019-05-20T14:46:35.612Z,22.00
2019-05-20T14:49:40.383Z,21.47
2019-05-20T14:52:45.121Z,19.23
2019-05-20T14:55:49.902Z,23.47
2019-05-20T14:58:55.846Z,21.50
2019-05-20T15:02:01.999Z,22.80
2019-05-20T15:05:07.555Z,22.37
2019-05-20T15:08:13.038Z,27.13
2019-05-20T15:11:17.901Z,31.17
2019-05-20T15:14:22.675Z,31.00
2019-05-20T15:17:28.908Z,28.87
2019-05-20T15:20:33.750Z,30.70
2019-05-20T15:23:38.479Z,31.60
2019-05-20T15:26:43.682Z,31.20
2019-05-20T15:29:49.893Z,30.93
2019-05-20T15:32:55.143Z,30.50
2019-05-20T15:36:00.293Z,33.30
2019-05-20T15:39:06.698Z,31.20
2019-05-20T15:42:11.532Z,31.60
2019-05-20T15:45:18.281Z,31.77
2019-05-20T15:48:23.419Z,30.57
2019-05-20T15:51:28.482Z,29.50
2019-05-20T15:54:33.546Z,34.57
2019-05-20T15:57:38.300Z,30.80
2019-05-20T16:00:43.073Z,33.47
2019-05-20T16:03:51.371Z,33.30
2019-05-20T16:06:54.473Z,37.40
2019-05-20T16:09:59.222Z,34.03
2019-05-20T16:13:04.092Z,35.43
2019-05-20T16:16:12.824Z,37.77
2019-05-20T16:19:15.807Z,40.10
2019-05-20T16:22:20.735Z,37.63
2019-05-20T16:25:25.526Z,38.70
2019-05-20T16:28:30.627Z,41.27
2019-05-20T16:31:35.524Z,40.53
2019-05-20T16:34:40.681Z,40.87
2019-05-20T16:37:45.600Z,43.07
2019-05-20T16:40:50.446Z,42.90
2019-05-20T16:43:55.863Z,44.17
2019-05-20T16:47:01.302Z,47.13
2019-05-20T16:50:08.300Z,43.97
2019-05-20T16:53:13.523Z,44.00
2019-05-20T16:56:18.649Z,46.93
2019-05-20T16:59:23.953Z,48.20
2019-05-20T17:02:31.625Z,46.87
2019-05-20T17:05:36.702Z,46.60
2019-05-20T17:08:41.919Z,43.93
2019-05-20T17:11:46.799Z,45.37
2019-05-20T17:14:52.030Z,45.37
2019-05-20T17:17:56.827Z,39.40
2019-05-20T17:21:01.973Z,41.17
2019-05-20T17:24:06.906Z,39.10
2019-05-20T17:27:12.274Z,42.93
2019-05-20T17:30:17.544Z,43.00
2019-05-20T17:33:22.774Z,41.67
2019-05-20T17:36:27.573Z,39.17
2019-05-20T17:39:32.550Z,39.90
2019-05-20T17:42:37.872Z,41.40
2019-05-20T17:45:43.095Z,40.23
2019-05-20T17:48:48.007Z,40.77
2019-05-20T17:51:52.826Z,43.60
2019-05-20T17:54:57.609Z,40.03
2019-05-20T17:58:02.521Z,40.80
2019-05-20T18:01:15.325Z,44.83
2019-05-20T18:04:14.452Z,42.43
2019-05-20T18:07:19.357Z,43.37
2019-05-20T18:10:25.404Z,37.80
2019-05-20T18:13:31.600Z,41.17
2019-05-20T18:16:36.729Z,46.20
2019-05-20T18:19:42.580Z,47.60
2019-05-20T18:22:47.796Z,49.90
2019-05-20T18:25:52.886Z,48.43
2019-05-20T18:28:58.466Z,46.57
2019-05-20T18:32:03.283Z,51.60
2019-05-20T18:35:08.690Z,45.63
2019-05-20T18:38:14.081Z,47.17
2019-05-20T18:41:20.319Z,45.33
2019-05-20T18:44:25.508Z,43.57
2019-05-20T18:47:30.595Z,45.00
2019-05-20T18:50:35.382Z,42.10
2019-05-20T18:53:40.177Z,39.23
2019-05-20T18:56:45.367Z,40.23
2019-05-20T18:59:50.173Z,46.30
2019-05-20T19:02:55.032Z,40.73
2019-05-20T19:06:00.123Z,42.53
2019-05-20T19:09:06.443Z,38.17
2019-05-20T19:12:11.978Z,46.67
2019-05-20T19:15:17.663Z,39.27
2019-05-20T19:18:22.479Z,39.77
2019-05-20T19:21:27.270Z,42.27
2019-05-20T19:24:32.563Z,41.53
2019-05-20T19:27:38.792Z,43.13
2019-05-20T19:30:43.834Z,42.77
2019-05-20T19:33:48.935Z,44.60
2019-05-20T19:36:54.068Z,42.43
2019-05-20T19:39:58.913Z,44.03
2019-05-20T19:43:03.699Z,47.80
2019-05-20T19:46:08.966Z,45.93
2019-05-20T19:49:13.991Z,45.57
2019-05-20T19:52:18.929Z,50.43
2019-05-20T19:55:23.994Z,50.57
2019-05-20T19:58:28.996Z,52.73
2019-05-20T20:01:34.273Z,57.83
2019-05-20T20:04:39.733Z,59.90
2019-05-20T20:07:46.031Z,57.77
2019-05-20T20:10:50.980Z,55.30
2019-05-20T20:13:55.920Z,57.80
2019-05-20T20:17:00.744Z,57.17
2019-05-20T20:20:05.902Z,57.60
2019-05-20T20:23:10.657Z,53.93
2019-05-20T20:26:15.755Z,62.83
2019-05-20T20:29:20.503Z,53.40
2019-05-20T20:32:37.268Z,56.80
2019-05-20T20:35:38.115Z,55.37
2019-05-20T20:38:39.172Z,57.03
2019-05-20T20:41:44.419Z,55.17
2019-05-20T20:44:49.541Z,56.83
2019-05-20T20:47:54.280Z,56.63
2019-05-20T20:50:59.047Z,53.50
2019-05-20T20:54:04.373Z,48.50
2019-05-20T20:57:09.339Z,51.00
2019-05-20T21:00:14.812Z,47.87
2019-05-20T21:03:22.432Z,52.57
2019-05-20T21:06:27.489Z,50.17
2019-05-20T21:09:32.615Z,57.40
2019-05-20T21:12:37.504Z,56.13
2019-05-20T21:15:42.555Z,50.83
2019-05-20T21:18:47.359Z,54.67
2019-05-20T21:21:52.350Z,51.97
2019-05-20T21:24:57.185Z,49.90
2019-05-20T21:28:01.954Z,51.03
2019-05-20T21:31:06.940Z,52.27
2019-05-20T21:34:11.951Z,53.53
2019-05-20T21:37:16.741Z,51.03
2019-05-20T21:40:21.579Z,51.37
2019-05-20T21:43:26.758Z,47.90
2019-05-20T21:46:31.911Z,48.00
2019-05-20T21:49:36.673Z,53.23
2019-05-20T21:52:42.031Z,49.13
2019-05-20T21:55:47.379Z,51.53
2019-05-20T21:58:52.211Z,50.33
2019-05-20T22:01:57.279Z,51.40
2019-05-20T22:05:02.733Z,53.43
2019-05-20T22:08:09.399Z,56.83
2019-05-20T22:11:14.271Z,50.83
2019-05-20T22:14:20.172Z,51.67
2019-05-20T22:17:25.343Z,49.90
2019-05-20T22:20:30.700Z,49.67
2019-05-20T22:24:00.868Z,52.93
2019-05-20T22:27:06.601Z,51.40
2019-05-20T22:30:11.869Z,49.07
2019-05-20T22:33:16.624Z,53.70
2019-05-20T22:36:21.581Z,54.57
2019-05-20T22:39:27.392Z,53.27
2019-05-20T22:42:32.158Z,56.07
2019-05-20T22:45:36.987Z,54.97
2019-05-20T22:48:41.866Z,56.30
2019-05-20T22:51:46.606Z,55.20
2019-05-20T22:54:51.457Z,53.33
2019-05-20T22:57:56.266Z,55.37
2019-05-20T23:01:01.187Z,58.17
2019-05-20T23:04:05.918Z,52.83
2019-05-20T23:07:10.759Z,54.13
2019-05-20T23:10:16.251Z,61.43
2019-05-20T23:13:21.670Z,56.47
2019-05-20T23:16:26.430Z,55.03
2019-05-20T23:19:31.243Z,55.57
2019-05-20T23:22:36.340Z,56.53
2019-05-20T23:25:41.144Z,58.87
2019-05-20T23:28:45.881Z,54.40
2019-05-20T23:31:50.654Z,56.97
2019-05-20T23:34:55.716Z,64.03
2019-05-20T23:38:00.481Z,57.43
2019-05-20T23:41:05.316Z,54.53
2019-05-20T23:44:10.099Z,55.87
2019-05-20T23:47:15.137Z,50.93
2019-05-20T23:50:20.086Z,53.60
2019-05-20T23:53:24.855Z,49.97
2019-05-20T23:56:29.611Z,50.37
2019-05-20T23:59:34.373Z,48.13
